createdAt,value
2023-04-15T00:03:23.132Z,33.40
2023-04-15T00:07:22.888Z,33.39
2023-04-15T00:11:23.620Z,33.40
2023-04-15T00:15:23.577Z,33.38
2023-04-15T00:19:23.564Z,33.40
2023-04-15T00:23:24.106Z,33.40
2023-04-15T00:27:23.522Z,33.38
2023-04-15T00:31:24.180Z,33.40
2023-04-15T00:35:23.758Z,33.41
2023-04-15T00:39:24.109Z,33.40
2023-04-15T00:43:24.076Z,33.40
2023-04-15T00:47:24.208Z,33.40
2023-04-15T00:51:24.605Z,33.39
2023-04-15T00:55:25.085Z,33.38
2023-04-15T00:59:24.605Z,33.38
2023-04-15T01:03:24.812Z,33.41
2023-04-15T01:07:24.826Z,33.40
2023-04-15T01:11:24.894Z,33.40
2023-04-15T01:15:25.034Z,33.38
2023-04-15T01:19:25.614Z,33.40
2023-04-15T01:23:25.355Z,33.38
2023-04-15T01:27:25.448Z,33.38
2023-04-15T01:31:25.666Z,33.37
2023-04-15T01:35:26.131Z,33.36
2023-04-15T01:39:26.104Z,33.38
2023-04-15T01:43:26.001Z,33.38
2023-04-15T01:47:26.666Z,33.37
2023-04-15T01:51:26.630Z,33.37
2023-04-15T01:55:27.095Z,33.37
2023-04-15T01:59:26.627Z,33.35
2023-04-15T02:03:26.836Z,33.34
2023-04-15T02:07:27.109Z,33.36
2023-04-15T02:11:27.645Z,33.38
2023-04-15T02:15:27.655Z,33.36
2023-04-15T02:19:27.583Z,33.35
2023-04-15T02:23:27.711Z,33.35
2023-04-15T02:27:28.138Z,33.36
2023-04-15T02:31:28.307Z,33.34
2023-04-15T02:35:28.633Z,33.35
2023-04-15T02:39:28.581Z,33.35
2023-04-15T02:43:28.712Z,33.33
2023-04-15T02:47:29.188Z,33.35
2023-04-15T02:51:29.157Z,33.35
2023-04-15T02:55:29.291Z,33.34
2023-04-15T02:59:29.506Z,33.34
2023-04-15T03:03:29.811Z,33.33
2023-04-15T03:07:30.159Z,33.32
2023-04-15T03:11:29.920Z,33.33
2023-04-15T03:15:30.146Z,33.31
2023-04-15T03:19:29.834Z,33.31
2023-04-15T03:23:30.169Z,33.30
2023-04-15T03:27:30.168Z,33.31
2023-04-15T03:31:29.766Z,33.30
2023-04-15T03:35:30.146Z,33.30
2023-04-15T03:39:29.719Z,33.31
2023-04-15T03:43:29.613Z,33.32
2023-04-15T03:47:29.677Z,33.31
2023-04-15T03:51:30.177Z,33.31
2023-04-15T03:55:30.184Z,33.30
2023-04-15T03:59:29.703Z,33.29
2023-04-15T04:03:29.918Z,33.27
2023-04-15T04:07:29.688Z,33.28
2023-04-15T04:11:29.695Z,33.23
2023-04-15T04:15:29.706Z,33.26
2023-04-15T04:19:29.548Z,33.27
2023-04-15T04:23:29.507Z,33.25
2023-04-15T04:27:30.195Z,33.25
2023-04-15T04:31:29.703Z,33.22
2023-04-15T04:35:29.651Z,33.22
2023-04-15T04:39:29.689Z,33.21
2023-04-15T04:43:29.712Z,33.20
2023-04-15T04:47:29.702Z,33.20
2023-04-15T04:51:29.523Z,33.19
2023-04-15T04:55:29.485Z,33.19
2023-04-15T04:59:29.711Z,33.14
2023-04-15T05:03:29.472Z,33.13
2023-04-15T05:07:29.664Z,33.14
2023-04-15T05:11:29.494Z,33.14
2023-04-15T05:15:29.539Z,33.10
2023-04-15T05:19:29.685Z,33.11
2023-04-15T05:23:29.410Z,33.09
2023-04-15T05:27:29.712Z,33.09
2023-04-15T05:31:29.742Z,33.07
2023-04-15T05:35:29.320Z,33.07
2023-04-15T05:39:29.748Z,33.03
2023-04-15T05:43:29.210Z,33.01
2023-04-15T05:47:29.289Z,33.03
2023-04-15T05:51:29.197Z,32.97
2023-04-15T05:55:29.311Z,32.98
2023-04-15T05:59:29.672Z,32.97
2023-04-15T06:03:29.755Z,32.92
2023-04-15T06:07:29.724Z,32.89
2023-04-15T06:11:29.430Z,32.86
2023-04-15T06:15:29.350Z,32.84
2023-04-15T06:19:29.359Z,32.86
2023-04-15T06:23:29.338Z,32.78
2023-04-15T06:27:29.703Z,32.76
2023-04-15T06:31:29.795Z,32.71
2023-04-15T06:35:29.240Z,32.68
2023-04-15T06:39:29.198Z,32.70
2023-04-15T06:43:29.204Z,32.70
2023-04-15T06:47:29.318Z,32.63
2023-04-15T06:51:29.252Z,32.61
2023-04-15T06:55:29.699Z,32.61
2023-04-15T06:59:29.207Z,32.61
2023-04-15T07:03:30.842Z,32.61
2023-04-15T07:07:29.283Z,32.56
2023-04-15T07:11:28.909Z,32.59
2023-04-15T07:15:29.201Z,32.56
2023-04-15T07:19:28.834Z,32.55
2023-04-15T07:23:29.219Z,32.54
2023-04-15T07:27:28.821Z,32.51
2023-04-15T07:31:28.864Z,32.47
2023-04-15T07:35:28.724Z,32.47
2023-04-15T07:39:28.740Z,32.43
2023-04-15T07:43:28.797Z,32.37
2023-04-15T07:47:28.802Z,32.38
2023-04-15T07:51:28.600Z,32.36
2023-04-15T07:55:28.565Z,32.32
2023-04-15T07:59:28.537Z,32.33
2023-04-15T08:03:28.544Z,32.31
2023-04-15T08:07:28.488Z,32.20
2023-04-15T08:11:28.443Z,32.14
2023-04-15T08:15:28.747Z,32.12
2023-04-15T08:19:28.766Z,32.11
2023-04-15T08:23:29.273Z,32.10
2023-04-15T08:27:29.232Z,32.05
2023-04-15T08:31:29.159Z,32.05
2023-04-15T08:35:29.309Z,32.09
2023-04-15T08:39:29.750Z,32.05
2023-04-15T08:43:29.762Z,32.04
2023-04-15T08:47:29.919Z,32.04
2023-04-15T08:51:30.361Z,32.06
2023-04-15T08:55:30.275Z,32.01
2023-04-15T08:59:30.434Z,32.00
2023-04-15T09:03:30.704Z,31.96
2023-04-15T09:07:30.771Z,31.91
2023-04-15T09:11:31.270Z,31.90
2023-04-15T09:15:31.276Z,31.86
2023-04-15T09:19:31.236Z,31.77
2023-04-15T09:23:31.358Z,31.71
2023-04-15T09:27:31.499Z,31.56
2023-04-15T09:31:31.795Z,31.50
2023-04-15T09:35:31.765Z,31.47
2023-04-15T09:39:31.787Z,31.46
2023-04-15T09:43:32.328Z,31.50
2023-04-15T09:47:32.011Z,31.55
2023-04-15T09:51:32.293Z,31.55
2023-04-15T09:55:32.258Z,31.58
2023-04-15T09:59:32.391Z,31.57
2023-04-15T10:03:32.679Z,31.52
2023-04-15T10:07:32.711Z,31.55
2023-04-15T10:11:33.301Z,31.55
2023-04-15T10:15:33.316Z,31.46
2023-04-15T10:19:33.196Z,31.47
2023-04-15T10:23:33.251Z,31.50
2023-04-15T10:27:33.871Z,31.49
2023-04-15T10:31:33.834Z,31.53
2023-04-15T10:35:33.828Z,31.45
2023-04-15T10:39:33.944Z,31.41
2023-04-15T10:43:34.048Z,31.40
2023-04-15T10:47:34.371Z,31.36
2023-04-15T10:51:34.809Z,31.31
2023-04-15T10:55:34.534Z,31.28
2023-04-15T10:59:34.810Z,31.31
2023-04-15T11:03:35.047Z,31.28
2023-04-15T11:07:35.333Z,31.28
2023-04-15T11:11:35.156Z,31.23
2023-04-15T11:15:35.815Z,31.19
2023-04-15T11:19:35.446Z,31.18
2023-04-15T11:23:35.609Z,31.17
2023-04-15T11:27:35.832Z,31.18
2023-04-15T11:31:36.383Z,31.16
2023-04-15T11:35:36.076Z,31.13
2023-04-15T11:39:36.295Z,31.09
2023-04-15T11:43:36.467Z,31.07
2023-04-15T11:47:36.865Z,30.98
2023-04-15T11:51:36.834Z,30.99
2023-04-15T11:55:37.103Z,31.11
2023-04-15T11:59:45.446Z,31.17
2023-04-15T12:03:38.375Z,31.16
2023-04-15T12:07:37.325Z,31.12
2023-04-15T12:11:37.305Z,31.00
2023-04-15T12:15:37.290Z,30.85
2023-04-15T12:19:37.259Z,30.76
2023-04-15T12:23:37.327Z,30.77
2023-04-15T12:27:37.360Z,30.71
2023-04-15T12:31:37.347Z,30.85
2023-04-15T12:35:37.105Z,30.82
2023-04-15T12:39:37.034Z,30.91
2023-04-15T12:43:37.369Z,30.84
2023-04-15T12:47:37.338Z,30.83
2023-04-15T12:51:37.369Z,30.95
2023-04-15T12:55:37.325Z,30.92
2023-04-15T12:59:37.371Z,30.89
2023-04-15T13:03:45.028Z,30.81
2023-04-15T13:07:37.491Z,30.89
2023-04-15T13:11:37.415Z,30.82
2023-04-15T13:15:37.401Z,30.70
2023-04-15T13:19:37.324Z,30.76
2023-04-15T13:23:37.351Z,30.74
2023-04-15T13:27:37.393Z,30.73
2023-04-15T13:31:37.267Z,30.71
2023-04-15T13:35:37.245Z,30.71
2023-04-15T13:39:37.386Z,30.68
2023-04-15T13:43:37.356Z,30.69
2023-04-15T13:47:37.414Z,30.64
2023-04-15T13:51:37.377Z,30.58
2023-04-15T13:55:37.670Z,30.56
2023-04-15T13:59:37.384Z,30.59
2023-04-15T14:03:37.657Z,30.57
2023-04-15T14:07:37.391Z,30.58
2023-04-15T14:11:37.386Z,30.58
2023-04-15T14:15:37.116Z,30.59
2023-04-15T14:19:37.369Z,30.66
2023-04-15T14:23:37.414Z,30.63
2023-04-15T14:27:37.015Z,30.71
2023-04-15T14:31:37.422Z,30.62
2023-04-15T14:35:37.139Z,30.68
2023-04-15T14:39:37.367Z,30.58
2023-04-15T14:43:37.895Z,30.65
2023-04-15T14:47:37.677Z,30.65
2023-04-15T14:51:39.213Z,30.68
2023-04-15T14:55:37.722Z,30.75
2023-04-15T14:59:37.890Z,30.70
2023-04-15T15:03:37.931Z,30.69
2023-04-15T15:07:37.914Z,30.73
2023-04-15T15:11:37.623Z,30.74
2023-04-15T15:15:37.619Z,30.73
2023-04-15T15:19:37.910Z,30.72
2023-04-15T15:23:37.896Z,30.80
2023-04-15T15:27:38.391Z,30.78
2023-04-15T15:31:37.937Z,30.83
2023-04-15T15:35:37.397Z,30.76
2023-04-15T15:39:37.434Z,30.80
2023-04-15T15:43:37.411Z,30.77
2023-04-15T15:47:37.489Z,30.82
2023-04-15T15:51:37.225Z,30.80
2023-04-15T15:55:37.402Z,30.84
2023-04-15T15:59:37.421Z,30.86
2023-04-15T16:03:37.662Z,30.83
2023-04-15T16:07:37.438Z,30.86
2023-04-15T16:11:37.085Z,30.83
2023-04-15T16:15:37.022Z,30.88
2023-04-15T16:19:36.976Z,30.91
2023-04-15T16:23:37.071Z,30.85
2023-04-15T16:27:54.252Z,30.91
2023-04-15T16:31:38.103Z,30.88
2023-04-15T16:35:37.446Z,30.93
2023-04-15T16:39:37.428Z,30.94
2023-04-15T16:43:37.425Z,30.93
2023-04-15T16:47:37.488Z,30.99
2023-04-15T16:51:37.140Z,30.96
2023-04-15T16:55:37.452Z,30.95
2023-04-15T16:59:37.428Z,30.99
2023-04-15T17:03:37.391Z,31.00
2023-04-15T17:07:37.436Z,30.99
2023-04-15T17:11:37.281Z,31.05
2023-04-15T17:15:37.521Z,31.03
2023-04-15T17:19:37.466Z,31.05
2023-04-15T17:23:37.443Z,31.06
2023-04-15T17:27:37.439Z,31.08
2023-04-15T17:31:37.560Z,31.09
2023-04-15T17:35:37.976Z,31.08
2023-04-15T17:39:38.024Z,31.12
2023-04-15T17:43:37.958Z,31.12
2023-04-15T17:47:38.095Z,31.14
2023-04-15T17:51:37.593Z,31.15
2023-04-15T17:55:37.662Z,31.16
2023-04-15T17:59:37.712Z,31.20
2023-04-15T18:03:38.104Z,31.17
2023-04-15T18:07:37.976Z,31.19
2023-04-15T18:11:37.864Z,31.19
2023-04-15T18:15:37.921Z,31.22
2023-04-15T18:19:37.972Z,31.22
2023-04-15T18:23:38.438Z,31.21
2023-04-15T18:27:38.452Z,31.27
2023-04-15T18:31:38.166Z,31.26
2023-04-15T18:35:38.474Z,31.28
2023-04-15T18:39:38.455Z,31.28
2023-04-15T18:43:38.478Z,31.30
2023-04-15T18:47:38.478Z,31.31
2023-04-15T18:51:38.528Z,31.30
2023-04-15T18:55:38.992Z,31.33
2023-04-15T18:59:38.984Z,31.34
2023-04-15T19:03:38.979Z,31.32
2023-04-15T19:07:38.877Z,31.35
2023-04-15T19:11:38.826Z,31.36
2023-04-15T19:15:38.998Z,31.39
2023-04-15T19:19:39.028Z,31.41
2023-04-15T19:23:39.475Z,31.39
2023-04-15T19:27:39.179Z,31.40
2023-04-15T19:31:39.475Z,31.43
2023-04-15T19:35:39.477Z,31.41
2023-04-15T19:39:39.495Z,31.44
2023-04-15T19:43:39.496Z,31.45
2023-04-15T19:47:39.589Z,31.47
2023-04-15T19:51:39.681Z,31.48
2023-04-15T19:55:40.022Z,31.48
2023-04-15T19:59:39.876Z,31.48
2023-04-15T20:03:40.129Z,31.50
2023-04-15T20:07:40.111Z,31.53
2023-04-15T20:12:47.808Z,31.51
2023-04-15T20:15:41.560Z,31.53
2023-04-15T20:19:40.112Z,31.52
2023-04-15T20:23:40.515Z,31.53
2023-04-15T20:27:40.267Z,31.53
2023-04-15T20:31:40.638Z,31.55
2023-04-15T20:35:40.492Z,31.55
2023-04-15T20:39:41.017Z,31.55
2023-04-15T20:43:40.704Z,31.57
2023-04-15T20:47:41.094Z,31.57
2023-04-15T20:51:41.026Z,31.56
2023-04-15T20:55:41.027Z,31.56
2023-04-15T20:59:41.111Z,31.59
2023-04-15T21:03:41.426Z,31.59
2023-04-15T21:07:41.320Z,31.61
2023-04-15T21:15:41.536Z,31.60
2023-04-15T21:19:41.535Z,31.63
2023-04-15T21:23:41.279Z,31.62
2023-04-15T21:27:41.518Z,31.63
2023-04-15T21:31:41.565Z,31.62
2023-04-15T21:35:41.549Z,31.65
2023-04-15T21:39:41.252Z,31.64
2023-04-15T21:43:41.348Z,31.67
2023-04-15T21:48:00.359Z,31.66
2023-04-15T21:51:42.566Z,31.65
2023-04-15T21:55:41.549Z,31.69
2023-04-15T21:59:41.370Z,31.68
2023-04-15T22:03:41.512Z,31.69
2023-04-15T22:07:41.544Z,31.69
2023-04-15T22:11:42.059Z,31.71
2023-04-15T22:15:41.739Z,31.72
2023-04-15T22:19:41.757Z,31.71
2023-04-15T22:23:41.880Z,31.72
2023-04-15T22:27:42.040Z,31.72
2023-04-15T22:31:42.158Z,31.74
2023-04-15T22:35:42.557Z,31.75
2023-04-15T22:39:42.381Z,31.76
2023-04-15T22:43:42.556Z,31.74
2023-04-15T22:47:43.060Z,31.75
2023-04-15T22:51:43.076Z,31.76
2023-04-15T22:55:42.985Z,31.75
2023-04-15T22:59:43.077Z,31.77
2023-04-15T23:03:56.621Z,31.78
2023-04-15T23:07:58.547Z,31.78
2023-04-15T23:11:45.091Z,31.79
2023-04-15T23:15:44.207Z,31.79
2023-04-15T23:19:43.037Z,31.81
2023-04-15T23:23:43.077Z,31.80
2023-04-15T23:27:43.039Z,31.83
2023-04-15T23:31:43.214Z,31.83
2023-04-15T23:35:42.906Z,31.84
2023-04-15T23:39:42.866Z,31.84
2023-04-15T23:43:43.110Z,31.81
2023-04-15T23:47:43.096Z,31.83
2023-04-15T23:51:43.106Z,31.84
2023-04-15T23:55:42.728Z,31.86
2023-04-15T23:59:46.102Z,31.87
